Dickinson's Hourly Summary for Tuesday, May 15, 2018
Hour Temp
(f)
RH
(%)
Solar Rad.
(MJ/m2)
Rainfall
(in)
Wind
(mph)
5/15/2018 12:00 AM 73 90 0 0 0
5/15/2018 1:00 AM 72 93 0 0 0
5/15/2018 2:00 AM 71 94 0 0 0
5/15/2018 3:00 AM 71 96 0 0 0
5/15/2018 4:00 AM 71 96 0 0 0
5/15/2018 5:00 AM 70 96 0 0 0
5/15/2018 6:00 AM 69 97 0 0 0
5/15/2018 7:00 AM 68 98 0.03 0 0
5/15/2018 8:00 AM 70 97 0.29 0 0
5/15/2018 9:00 AM 76 73 1.2 0 0.08
5/15/2018 10:00 AM 80 62 0.76 0 1.74
5/15/2018 11:00 AM 83 51 2.24 0 1.84
5/15/2018 12:00 PM 85 43 2.85 0 2.4
5/15/2018 1:00 PM 87 43 3.1 0 2.73
5/15/2018 2:00 PM 86 45 2.72 0 3.89
5/15/2018 3:00 PM 87 41 2.88 0 5.2
5/15/2018 4:00 PM 87 42 2.79 0 6.46
5/15/2018 5:00 PM 86 42 2.25 0 7.19
5/15/2018 6:00 PM 85 40 1.6 0 6.71
5/15/2018 7:00 PM 84 41 0.88 0 5.69
5/15/2018 8:00 PM 82 50 0.25 0 3.82
5/15/2018 9:00 PM 78 63 0 0 1.7
5/15/2018 10:00 PM 76 71 0 0 0.27
5/15/2018 11:00 PM 75 77 0 0 0.16
Data Summary 78 68 23.84 0.00 2.08